الصفحة الرئيسية
METAR-TAF:

METAR-TAF

مطار :

كيب تاون, جنوب أفريقيا

مطار كيب تاون

دائرة عرض: 33-59S, خط طول: 018-36E, ارتفاع: 42 متر

مراقبة الطقس الحالي

تاريخ ووقت الإصدار 43 دقيقة قبل الساعة 03:00UTC
ريح 18 عقدة من الجنوب
درجة الحرارة 20°درجة مئوية
الرطوبة 88%
ضغط 1012 hPa
الرؤية 10 كم أو أكثر
غيوم قليلة على ارتفاع 3000 قدم

METAR: FACT 190300Z 19018KT 9999 FEW030 20/18 Q1012 NOSIG

زمن: 05:43 (03:43 UTC)

توقعات

تاريخ ووقت الإصدار 5ساعات و 43 دقيقة قبل الساعة 22:00UTC
التوقعات صالحة من19 الساعة 00 UTC إلى 20 الساعة 06 UTC
ريح 16 عقدة من الجنوب
الرؤية 10 كم أو أكثر
غيوم متفرقة على ارتفاع 2000 قدم
نظرية الاحتمالات 30% :
مؤقت
من 19 الساعة 00 UTC إلى 19 الساعة 07 UTC
غيوم مفككة على ارتفاع 900 قدم
من 19 الساعة 0900 UTC
ريح 24 عقدة من الجنوب
الرؤية 10 كم أو أكثر
غيوم متفرقة على ارتفاع 3000 قدم
أصبح
من 19 الساعة 18 UTC إلى 19 الساعة 20 UTC
ريح 14 عقدة من الجنوب

TAF: FACT 182200Z 1900/2006 18016KT 9999 SCT020 PROB30 TEMPO 1900/1907 BKN009 FM190900 17024KT 9999 SCT030 BECMG 1918/1920 17014KT TX26/1912Z TN17/2004Z

أرصاد الطقس والتوقعات من أكثر من 4000 مطار (تقارير الطقس للمطار METAR والتنبؤ بالطقس بالمطارTAF).

المحطات المتاحة هي النقط الصفراء والحمراء على الخريطة.

حرك المؤشر فوق النقطة لمعرفة اسم المحطة.

ثم انقر لمعرفة أرصاد وتوقعات الطقس.

لتغيير الخارطة: اضغط على الأزرار الخضراء مع رمز الصليب الأسود للتكبير. على الزر الأخضر مع شرطة للتصغير، أو على الأسهم الخضراء للخرائط المجاورة.


METAR-TAF: